Playa Vista, California
Current Conditions -  °F | °C
As of 3:53 PM on Wednesday 28 Jan 2015 (Local Time) from KLAX Reporting Station
Broken Clouds Broken Clouds  
Wind Chill: 65°   Ceiling: 14000
Heat Index: 65°   Visibility: 10mi
Dew Point: 49°   Wind: 8mph
Humidity: 56%   Direction: 300°WNW
Pressure: 30.07"   Gusts: NA
Location:  33.9534°N, 118.399°W
Report Text: KLAX 282353Z 30007KT 10SM SCT110 BKN140 BKN250 18/09 A3007 RMK AO2 SLP181 T01830094 10222 20172 58003
Loading
Personal Weather Stations






























Interactive Weather Map New forecast layout! Learn more

10-Day Weather Forecast

Advertisements
Track Severe Weather on mobile